TAF : OOSA 261740Z 2618/2800 VRB02KT 9999 SCT025 BECMG 2705/2707 14010KT BECMG 2716/2718 VRB02KT